Time;durP1;ratioP1;P1;durP2;ratioP2;P2;SDS_P1;SDS_P2;PMS_P1;PMS_P2;Temp;Humidity;BMP_temperature;BMP_pressure;BME280_temperature;BME280_humidity;BME280_pressure;Samples;Min_cycle;Max_cycle;Signal;HPM_P1;HPM_P2
2022/04/03 00:00:46;;;;;;;;;;;;;;;;;;5034612;28;19912;-48
2022/04/03 00:03:12;;;;;;;;;;;;;;;;;;5034260;28;19957;-49
2022/04/03 00:05:39;;;;;;;;;;;;;;;;;;5034777;28;19941;-49
2022/04/03 00:08:05;;;;;;;;;;;;;;;;;;5034446;28;19959;-49
2022/04/03 00:10:31;;;;;;;;;;;;;;;;;;5034472;28;20003;-48
2022/04/03 00:12:57;;;;;;;;;;;;;;;;;;5034408;28;19920;-49
2022/04/03 00:15:23;;;;;;;;;;;;;;;;;;5034393;28;20409;-49
2022/04/03 00:17:49;;;;;;;;;;;;;;;;;;5034543;28;19905;-49
2022/04/03 00:20:16;;;;;;;;;;;;;;;;;;5034092;28;20391;-49
2022/04/03 00:22:47;;;;;;;;;;;;;;;;;;5034169;28;19905;-49
2022/04/03 00:25:13;;;;;;;;;;;;;;;;;;5034297;28;19994;-49
2022/04/03 00:27:39;;;;;;;;;;;;;;;;;;5033589;28;19905;-48
2022/04/03 00:30:05;;;;;;;;;;;;;;;;;;5034179;28;20004;-50
2022/04/03 00:32:31;;;;;;;;;;;;;;;;;;5034142;28;19913;-48
2022/04/03 00:34:57;;;;;;;;;;;;;;;;;;5034111;28;19936;-51
2022/04/03 00:37:23;;;;;;;;;;;;;;;;;;5034027;28;19909;-48
2022/04/03 00:39:48;;;;;;;;;;;;;;;;;;5034047;28;20406;-49
2022/04/03 00:42:14;;;;;;;;;;;;;;;;;;5034007;28;19944;-48
2022/04/03 00:44:40;;;;;;;;;;;;;;;;;;5033957;28;20322;-49
2022/04/03 00:47:06;;;;;;;;;;;;;;;;;;5033940;28;20339;-50
2022/04/03 00:49:32;;;;;;;;;;;;;;;;;;5033831;28;19909;-47
2022/04/03 00:51:58;;;;;;;;;;;;;;;;;;5033885;28;20406;-48
2022/04/03 00:54:24;;;;;;;;;;;;;;;;;;5033722;28;19920;-49
2022/04/03 00:56:50;;;;;;;;;;;;;;;;;;5033732;28;19927;-49
2022/04/03 00:59:15;;;;;;;;;;;;;;;;;;5033723;28;19905;-49
2022/04/03 01:01:41;;;;;;;;;;;;;;;;;;5033764;28;20382;-49
2022/04/03 01:04:08;;;;;;;;;;;;;;;;;;5033371;28;19959;-49
2022/04/03 01:06:34;;;;;;;;;;;;;;;;;;5033769;28;19905;-46
2022/04/03 01:08:59;;;;;;;;;;;;;;;;;;5033415;28;19905;-47
2022/04/03 01:11:25;;;;;;;;;;;;;;;;;;5033361;28;20000;-47
2022/04/03 01:13:51;;;;;;;;;;;;;;;;;;5033418;28;19920;-47
2022/04/03 01:16:17;;;;;;;;;;;;;;;;;;5033307;28;19964;-48
2022/04/03 01:18:43;;;;;;;;;;;;;;;;;;5033204;28;19905;-46
2022/04/03 01:21:09;;;;;;;;;;;;;;;;;;5033471;28;19905;-46
2022/04/03 01:23:35;;;;;;;;;;;;;;;;;;5033113;28;20389;-47
2022/04/03 01:26:00;;;;;;;;;;;;;;;;;;5033171;28;19935;-49
2022/04/03 01:28:26;;;;;;;;;;;;;;;;;;5033158;28;20000;-46
2022/04/03 01:30:52;;;;;;;;;;;;;;;;;;5033091;28;20326;-47
2022/04/03 01:33:18;;;;;;;;;;;;;;;;;;5032945;28;19920;-46
2022/04/03 01:35:44;;;;;;;;;;;;;;;;;;5033093;28;19947;-47
2022/04/03 01:38:10;;;;;;;;;;;;;;;;;;5032999;28;19905;-46
2022/04/03 01:40:36;;;;;;;;;;;;;;;;;;5032929;28;19912;-46
2022/04/03 01:43:02;;;;;;;;;;;;;;;;;;5033040;28;20374;-47
2022/04/03 01:45:28;;;;;;;;;;;;;;;;;;5032906;28;19905;-48
2022/04/03 01:47:54;;;;;;;;;;;;;;;;;;5033109;28;19920;-50
2022/04/03 01:50:20;;;;;;;;;;;;;;;;;;5032840;28;19905;-49
2022/04/03 01:52:46;;;;;;;;;;;;;;;;;;5032673;28;19936;-49
2022/04/03 01:55:12;;;;;;;;;;;;;;;;;;5032731;28;20019;-49
2022/04/03 01:57:38;;;;;;;;;;;;;;;;;;5032719;28;19992;-50
2022/04/03 02:00:06;;;;;;;;;;;;;;;;;;5032745;28;19905;-49
2022/04/03 02:02:31;;;;;;;;;;;;;;;;;;5032691;28;19932;-46
2022/04/03 02:04:57;;;;;;;;;;;;;;;;;;5031421;28;19913;-49
2022/04/03 02:07:23;;;;;;;;;;;;;;;;;;5032884;28;19911;-49
2022/04/03 02:09:49;;;;;;;;;;;;;;;;;;5032558;28;20004;-48
2022/04/03 02:12:15;;;;;;;;;;;;;;;;;;5032528;28;19955;-48
2022/04/03 02:14:41;;;;;;;;;;;;;;;;;;5032521;28;19932;-48
2022/04/03 02:17:07;;;;;;;;;;;;;;;;;;5032550;28;19909;-51
2022/04/03 02:19:33;;;;;;;;;;;;;;;;;;5032489;28;20334;-48
2022/04/03 02:21:58;;;;;;;;;;;;;;;;;;5032520;28;19912;-48
2022/04/03 02:24:24;;;;;;;;;;;;;;;;;;5032946;28;19905;-47
2022/04/03 02:26:51;;;;;;;;;;;;;;;;;;5032656;28;19909;-47
2022/04/03 02:29:17;;;;;;;;;;;;;;;;;;5032474;28;19948;-47
2022/04/03 02:31:43;;;;;;;;;;;;;;;;;;5032395;28;20441;-47
2022/04/03 02:34:08;;;;;;;;;;;;;;;;;;5032251;28;19913;-47
2022/04/03 02:36:34;;;;;;;;;;;;;;;;;;5032584;28;20128;-46
2022/04/03 02:39:00;;;;;;;;;;;;;;;;;;5032594;28;19951;-47
2022/04/03 02:41:27;;;;;;;;;;;;;;;;;;5032396;28;19951;-47
2022/04/03 02:43:53;;;;;;;;;;;;;;;;;;5032197;28;20372;-46
2022/04/03 02:46:19;;;;;;;;;;;;;;;;;;5032302;28;19920;-48
2022/04/03 02:48:45;;;;;;;;;;;;;;;;;;5032171;28;20363;-47
2022/04/03 02:51:10;;;;;;;;;;;;;;;;;;5034957;28;19905;-46
2022/04/03 02:53:37;;;;;;;;;;;;;;;;;;5036080;28;19913;-46
2022/04/03 02:56:02;;;;;;;;;;;;;;;;;;5035983;28;19916;-46
2022/04/03 02:58:28;;;;;;;;;;;;;;;;;;5036048;28;19944;-51
2022/04/03 03:00:54;;;;;;;;;;;;;;;;;;5035869;28;20355;-48
2022/04/03 03:03:20;;;;;;;;;;;;;;;;;;5035686;28;19979;-48
2022/04/03 03:05:46;;;;;;;;;;;;;;;;;;5035855;28;19951;-51
2022/04/03 03:08:12;;;;;;;;;;;;;;;;;;5035752;28;20529;-49
2022/04/03 03:10:38;;;;;;;;;;;;;;;;;;5035928;28;19905;-48
2022/04/03 03:13:03;;;;;;;;;;;;;;;;;;5035599;28;19979;-50
2022/04/03 03:15:29;;;;;;;;;;;;;;;;;;5035965;28;19905;-48
2022/04/03 03:17:55;;;;;;;;;;;;;;;;;;5035645;28;20421;-47
2022/04/03 03:20:21;;;;;;;;;;;;;;;;;;5035622;28;20395;-46
2022/04/03 03:22:48;;;;;;;;;;;;;;;;;;5035515;28;19905;-48
2022/04/03 03:25:13;;;;;;;;;;;;;;;;;;5035796;28;19916;-46
2022/04/03 03:27:39;;;;;;;;;;;;;;;;;;5035448;28;20318;-47
2022/04/03 03:30:05;;;;;;;;;;;;;;;;;;5035377;28;19905;-47
2022/04/03 03:32:32;;;;;;;;;;;;;;;;;;5035281;28;19909;-46
2022/04/03 03:34:58;;;;;;;;;;;;;;;;;;5035595;28;19909;-47
2022/04/03 03:37:24;;;;;;;;;;;;;;;;;;5035366;28;20307;-46
2022/04/03 03:39:50;;;;;;;;;;;;;;;;;;5035267;28;19912;-49
2022/04/03 03:42:16;;;;;;;;;;;;;;;;;;5035160;28;20298;-46
2022/04/03 03:44:42;;;;;;;;;;;;;;;;;;5035164;28;19905;-49
2022/04/03 03:47:07;;;;;;;;;;;;;;;;;;5035003;28;19905;-48
2022/04/03 03:49:33;;;;;;;;;;;;;;;;;;5035107;28;19927;-47
2022/04/03 03:51:59;;;;;;;;;;;;;;;;;;5035014;28;19920;-47
2022/04/03 03:54:25;;;;;;;;;;;;;;;;;;5034892;28;20295;-46
2022/04/03 03:56:51;;;;;;;;;;;;;;;;;;5035170;28;19905;-46
2022/04/03 03:59:17;;;;;;;;;;;;;;;;;;5034843;28;19905;-46
2022/04/03 04:01:43;;;;;;;;;;;;;;;;;;5033862;28;19978;-47
2022/04/03 04:04:08;;;;;;;;;;;;;;;;;;5034593;28;20391;-47
2022/04/03 04:06:34;;;;;;;;;;;;;;;;;;5034829;28;19944;-46
2022/04/03 04:09:00;;;;;;;;;;;;;;;;;;5034674;28;20372;-47
2022/04/03 04:11:26;;;;;;;;;;;;;;;;;;5034656;28;19955;-50
2022/04/03 04:13:52;;;;;;;;;;;;;;;;;;5034617;28;19932;-47
2022/04/03 04:16:18;;;;;;;;;;;;;;;;;;5034529;28;19912;-47
2022/04/03 04:18:44;;;;;;;;;;;;;;;;;;5034547;28;19905;-46
2022/04/03 04:21:11;;;;;;;;;;;;;;;;;;5034807;28;20372;-47
2022/04/03 04:23:37;;;;;;;;;;;;;;;;;;5034706;28;20279;-47
2022/04/03 04:26:03;;;;;;;;;;;;;;;;;;5034400;28;19905;-47
2022/04/03 04:28:29;;;;;;;;;;;;;;;;;;5034302;28;19999;-46
2022/04/03 04:30:57;;;;;;;;;;;;;;;;;;5034308;28;19912;-46
2022/04/03 04:33:23;;;;;;;;;;;;;;;;;;5034133;28;19917;-47
2022/04/03 04:35:50;;;;;;;;;;;;;;;;;;5034440;28;20285;-47
2022/04/03 04:38:15;;;;;;;;;;;;;;;;;;5034389;28;20349;-46
2022/04/03 04:40:41;;;;;;;;;;;;;;;;;;5034081;28;19937;-46
2022/04/03 04:43:07;;;;;;;;;;;;;;;;;;5034014;28;19991;-48
2022/04/03 04:45:33;;;;;;;;;;;;;;;;;;5033935;28;19951;-46
2022/04/03 04:47:59;;;;;;;;;;;;;;;;;;5033913;28;19909;-46
2022/04/03 04:50:25;;;;;;;;;;;;;;;;;;5034224;28;19912;-49
2022/04/03 04:52:51;;;;;;;;;;;;;;;;;;5034076;28;19917;-49
2022/04/03 04:55:19;;;;;;;;;;;;;;;;;;5033758;28;20412;-51
2022/04/03 04:57:45;;;;;;;;;;;;;;;;;;5033704;28;19911;-48
2022/04/03 05:00:13;;;;;;;;;;;;;;;;;;5033688;28;19906;-50
2022/04/03 05:02:39;;;;;;;;;;;;;;;;;;5033414;28;19905;-50
2022/04/03 05:05:06;;;;;;;;;;;;;;;;;;5033894;28;19913;-49
2022/04/03 05:07:32;;;;;;;;;;;;;;;;;;5033534;28;19915;-48
2022/04/03 05:09:58;;;;;;;;;;;;;;;;;;5033535;28;19905;-50
2022/04/03 05:12:24;;;;;;;;;;;;;;;;;;5033441;28;19905;-50
2022/04/03 05:14:50;;;;;;;;;;;;;;;;;;5033655;28;20287;-49
2022/04/03 05:17:16;;;;;;;;;;;;;;;;;;5033621;28;20015;-50
2022/04/03 05:19:42;;;;;;;;;;;;;;;;;;5033573;28;20330;-51
2022/04/03 05:22:08;;;;;;;;;;;;;;;;;;5033302;28;19909;-50
2022/04/03 05:24:34;;;;;;;;;;;;;;;;;;5033527;28;19912;-48
2022/04/03 05:26:59;;;;;;;;;;;;;;;;;;5033348;28;19905;-47
2022/04/03 05:29:25;;;;;;;;;;;;;;;;;;5033166;28;19959;-47
2022/04/03 05:31:51;;;;;;;;;;;;;;;;;;5033130;28;20253;-47
2022/04/03 05:34:17;;;;;;;;;;;;;;;;;;5033065;28;20007;-47
2022/04/03 05:36:43;;;;;;;;;;;;;;;;;;5033354;28;20369;-48
2022/04/03 05:39:09;;;;;;;;;;;;;;;;;;5033121;28;19974;-47
2022/04/03 05:41:35;;;;;;;;;;;;;;;;;;5033222;28;19928;-46
2022/04/03 05:44:01;;;;;;;;;;;;;;;;;;5033305;28;19963;-48
2022/04/03 05:46:27;;;;;;;;;;;;;;;;;;5032890;28;19905;-49
2022/04/03 05:48:53;;;;;;;;;;;;;;;;;;5032870;28;20053;-48
2022/04/03 05:51:19;;;;;;;;;;;;;;;;;;5032888;28;20399;-50
2022/04/03 05:53:45;;;;;;;;;;;;;;;;;;5032770;28;19920;-49
2022/04/03 05:56:11;;;;;;;;;;;;;;;;;;5032829;28;20003;-49
2022/04/03 05:58:37;;;;;;;;;;;;;;;;;;5032730;28;19944;-49
2022/04/03 06:01:03;;;;;;;;;;;;;;;;;;5032698;28;19944;-48
2022/04/03 06:03:29;;;;;;;;;;;;;;;;;;5032521;28;19928;-49
2022/04/03 06:05:55;;;;;;;;;;;;;;;;;;5032650;28;20402;-49
2022/04/03 06:08:21;;;;;;;;;;;;;;;;;;5032610;28;19905;-50
2022/04/03 06:10:46;;;;;;;;;;;;;;;;;;5032634;28;19905;-51
2022/04/03 06:13:13;;;;;;;;;;;;;;;;;;5032493;28;19917;-48
2022/04/03 06:15:39;;;;;;;;;;;;;;;;;;5032795;28;19905;-50
2022/04/03 06:18:05;;;;;;;;;;;;;;;;;;5032526;28;20360;-49
2022/04/03 06:20:31;;;;;;;;;;;;;;;;;;5032572;28;19905;-46
2022/04/03 06:22:57;;;;;;;;;;;;;;;;;;5032796;28;19905;-51
2022/04/03 06:25:23;;;;;;;;;;;;;;;;;;5034053;28;20372;-49
2022/04/03 06:27:48;;;;;;;;;;;;;;;;;;5036818;28;19971;-50
2022/04/03 06:30:14;;;;;;;;;;;;;;;;;;5036541;28;19928;-50
2022/04/03 06:32:40;;;;;;;;;;;;;;;;;;5036417;28;19909;-50
2022/04/03 06:35:06;;;;;;;;;;;;;;;;;;5036429;28;20364;-49
2022/04/03 06:37:32;;;;;;;;;;;;;;;;;;5036346;28;19955;-49
2022/04/03 06:39:58;;;;;;;;;;;;;;;;;;5036264;28;20430;-47
2022/04/03 06:42:24;;;;;;;;;;;;;;;;;;5036582;28;19904;-47
2022/04/03 06:44:50;;;;;;;;;;;;;;;;;;5036418;28;19909;-47
2022/04/03 06:47:15;;;;;;;;;;;;;;;;;;5036114;28;19904;-47
2022/04/03 06:49:41;;;;;;;;;;;;;;;;;;5036189;28;20012;-47
2022/04/03 06:52:08;;;;;;;;;;;;;;;;;;5036030;28;19905;-46
2022/04/03 06:54:34;;;;;;;;;;;;;;;;;;5036450;28;19971;-47
2022/04/03 06:57:00;;;;;;;;;;;;;;;;;;5036165;28;19909;-47
2022/04/03 06:59:27;;;;;;;;;;;;;;;;;;5035790;28;19909;-47
2022/04/03 07:01:53;;;;;;;;;;;;;;;;;;5035785;28;19959;-46
2022/04/03 07:04:19;;;;;;;;;;;;;;;;;;5035535;28;19916;-47
2022/04/03 07:06:45;;;;;;;;;;;;;;;;;;5035641;28;19912;-49
2022/04/03 07:09:11;;;;;;;;;;;;;;;;;;5035630;28;19909;-48
2022/04/03 07:11:37;;;;;;;;;;;;;;;;;;5035542;28;19909;-48
2022/04/03 07:14:02;;;;;;;;;;;;;;;;;;5035517;28;19924;-47
2022/04/03 07:16:28;;;;;;;;;;;;;;;;;;5035579;28;19905;-47
2022/04/03 07:18:54;;;;;;;;;;;;;;;;;;5035460;28;20313;-46
2022/04/03 07:21:20;;;;;;;;;;;;;;;;;;5035460;28;19988;-47
2022/04/03 07:23:46;;;;;;;;;;;;;;;;;;5035305;28;19905;-47
2022/04/03 07:26:12;;;;;;;;;;;;;;;;;;5035357;28;20439;-46
2022/04/03 07:28:38;;;;;;;;;;;;;;;;;;5035464;28;19968;-48
2022/04/03 07:31:03;;;;;;;;;;;;;;;;;;5035657;28;19943;-47
2022/04/03 07:33:29;;;;;;;;;;;;;;;;;;5035350;28;19920;-46
2022/04/03 07:35:55;;;;;;;;;;;;;;;;;;5035240;28;19905;-49
2022/04/03 07:38:21;;;;;;;;;;;;;;;;;;5035270;28;19992;-48
2022/04/03 07:40:47;;;;;;;;;;;;;;;;;;5035180;28;19912;-48
2022/04/03 07:43:14;;;;;;;;;;;;;;;;;;5035051;28;20003;-49
2022/04/03 07:45:40;;;;;;;;;;;;;;;;;;5035532;28;19950;-52
2022/04/03 07:48:06;;;;;;;;;;;;;;;;;;5035134;28;19995;-49
2022/04/03 07:50:32;;;;;;;;;;;;;;;;;;5035122;28;19909;-50
2022/04/03 07:52:59;;;;;;;;;;;;;;;;;;5035066;28;20020;-50
2022/04/03 07:55:24;;;;;;;;;;;;;;;;;;5035168;28;19912;-50
2022/04/03 07:57:50;;;;;;;;;;;;;;;;;;5035044;28;19905;-50
2022/04/03 08:00:16;;;;;;;;;;;;;;;;;;5034857;28;19944;-50
2022/04/03 08:02:42;;;;;;;;;;;;;;;;;;5034490;28;20005;-49
2022/04/03 08:05:08;;;;;;;;;;;;;;;;;;5034774;28;20371;-48
2022/04/03 08:07:34;;;;;;;;;;;;;;;;;;5035061;28;19909;-49
2022/04/03 08:10:00;;;;;;;;;;;;;;;;;;5034772;28;20003;-49
2022/04/03 08:12:26;;;;;;;;;;;;;;;;;;5034740;28;19943;-49
2022/04/03 08:14:52;;;;;;;;;;;;;;;;;;5034671;28;20375;-50
2022/04/03 08:17:18;;;;;;;;;;;;;;;;;;5034607;28;19912;-50
2022/04/03 08:19:44;;;;;;;;;;;;;;;;;;5034542;28;19905;-50
2022/04/03 08:22:10;;;;;;;;;;;;;;;;;;5034445;28;19912;-49
2022/04/03 08:24:36;;;;;;;;;;;;;;;;;;5034791;28;19905;-49
2022/04/03 08:27:01;;;;;;;;;;;;;;;;;;5034457;28;20003;-49
2022/04/03 08:29:28;;;;;;;;;;;;;;;;;;5034431;28;19905;-49
2022/04/03 08:31:54;;;;;;;;;;;;;;;;;;5034377;28;19905;-49
2022/04/03 08:34:20;;;;;;;;;;;;;;;;;;5034270;28;20511;-50
2022/04/03 08:36:46;;;;;;;;;;;;;;;;;;5034602;28;19905;-49
2022/04/03 08:39:12;;;;;;;;;;;;;;;;;;5034457;28;20275;-50
2022/04/03 08:41:38;;;;;;;;;;;;;;;;;;5034136;28;19912;-51
2022/04/03 08:44:07;;;;;;;;;;;;;;;;;;5034077;28;19905;-49
2022/04/03 08:46:33;;;;;;;;;;;;;;;;;;5034294;28;20328;-51
2022/04/03 08:49:01;;;;;;;;;;;;;;;;;;5033380;28;19905;-49
2022/04/03 08:51:27;;;;;;;;;;;;;;;;;;5033934;28;19912;-50
2022/04/03 08:53:52;;;;;;;;;;;;;;;;;;5033834;28;19917;-50
2022/04/03 08:56:18;;;;;;;;;;;;;;;;;;5033832;28;19959;-49
2022/04/03 08:58:44;;;;;;;;;;;;;;;;;;5033762;28;19905;-50
2022/04/03 09:01:10;;;;;;;;;;;;;;;;;;5033684;28;19948;-49
2022/04/03 09:03:37;;;;;;;;;;;;;;;;;;5033584;28;20429;-49
2022/04/03 09:06:02;;;;;;;;;;;;;;;;;;5033982;28;20143;-47
2022/04/03 09:08:28;;;;;;;;;;;;;;;;;;5033612;28;20166;-48
2022/04/03 09:10:54;;;;;;;;;;;;;;;;;;5033517;28;20007;-49
2022/04/03 09:13:20;;;;;;;;;;;;;;;;;;5033441;28;19913;-49
2022/04/03 09:15:46;;;;;;;;;;;;;;;;;;5033452;28;20336;-50
2022/04/03 09:18:12;;;;;;;;;;;;;;;;;;5033462;28;19905;-49
2022/04/03 09:20:38;;;;;;;;;;;;;;;;;;5033591;28;19951;-49
2022/04/03 09:23:03;;;;;;;;;;;;;;;;;;5033554;28;20382;-51
2022/04/03 09:25:29;;;;;;;;;;;;;;;;;;5033247;28;20314;-46
2022/04/03 09:27:55;;;;;;;;;;;;;;;;;;5033250;28;19905;-48
2022/04/03 09:30:21;;;;;;;;;;;;;;;;;;5033136;28;20291;-48
2022/04/03 09:32:47;;;;;;;;;;;;;;;;;;5033014;28;19932;-47
2022/04/03 09:35:13;;;;;;;;;;;;;;;;;;5033380;28;20304;-47
2022/04/03 09:37:39;;;;;;;;;;;;;;;;;;5033058;28;19967;-47
2022/04/03 09:40:06;;;;;;;;;;;;;;;;;;5033004;28;19905;-47
2022/04/03 09:42:31;;;;;;;;;;;;;;;;;;5032990;28;19912;-47
2022/04/03 09:44:57;;;;;;;;;;;;;;;;;;5032980;28;19907;-49
2022/04/03 09:47:26;;;;;;;;;;;;;;;;;;5033106;28;20000;-53
2022/04/03 09:49:52;;;;;;;;;;;;;;;;;;5033196;28;19905;-50
2022/04/03 09:52:18;;;;;;;;;;;;;;;;;;5032904;28;20425;-49
2022/04/03 09:54:44;;;;;;;;;;;;;;;;;;5032704;28;19942;-50
2022/04/03 09:57:09;;;;;;;;;;;;;;;;;;5033132;28;19966;-50
2022/04/03 09:59:35;;;;;;;;;;;;;;;;;;5031766;28;20283;-49
2022/04/03 10:02:01;;;;;;;;;;;;;;;;;;5032780;28;19951;-47
2022/04/03 10:04:27;;;;;;;;;;;;;;;;;;5032590;28;20498;-49
2022/04/03 10:06:53;;;;;;;;;;;;;;;;;;5032651;28;19912;-49
2022/04/03 10:09:19;;;;;;;;;;;;;;;;;;5032613;28;19905;-47
2022/04/03 10:11:46;;;;;;;;;;;;;;;;;;5032552;28;19905;-47
2022/04/03 10:14:12;;;;;;;;;;;;;;;;;;5032609;28;19917;-47
2022/04/03 10:16:38;;;;;;;;;;;;;;;;;;5032528;28;20284;-49
2022/04/03 10:19:04;;;;;;;;;;;;;;;;;;5032546;28;19905;-48
2022/04/03 10:21:30;;;;;;;;;;;;;;;;;;5033097;28;19955;-50
2022/04/03 10:23:56;;;;;;;;;;;;;;;;;;5032544;28;19944;-50
2022/04/03 10:26:22;;;;;;;;;;;;;;;;;;5032635;28;19905;-50
2022/04/03 10:28:48;;;;;;;;;;;;;;;;;;5032453;28;19916;-53
2022/04/03 10:31:13;;;;;;;;;;;;;;;;;;5032884;28;19905;-52
2022/04/03 10:33:39;;;;;;;;;;;;;;;;;;5032360;28;19960;-49
2022/04/03 10:36:05;;;;;;;;;;;;;;;;;;5032619;28;19963;-49
2022/04/03 10:38:31;;;;;;;;;;;;;;;;;;5032332;28;19944;-47
2022/04/03 10:40:58;;;;;;;;;;;;;;;;;;5032286;28;20001;-48
2022/04/03 10:43:24;;;;;;;;;;;;;;;;;;5032353;28;19948;-48
2022/04/03 10:45:50;;;;;;;;;;;;;;;;;;5032210;28;20349;-46
2022/04/03 10:48:16;;;;;;;;;;;;;;;;;;5032261;28;19948;-49
2022/04/03 10:50:42;;;;;;;;;;;;;;;;;;5032173;28;19936;-48
2022/04/03 10:53:08;;;;;;;;;;;;;;;;;;5032092;28;20445;-46
2022/04/03 10:55:33;;;;;;;;;;;;;;;;;;5032516;28;19905;-47
2022/04/03 10:58:03;;;;;;;;;;;;;;;;;;5032148;28;19944;-49
2022/04/03 11:00:29;;;;;;;;;;;;;;;;;;5032034;28;20292;-48
2022/04/03 11:02:55;;;;;;;;;;;;;;;;;;5031658;28;19912;-49
2022/04/03 11:05:21;;;;;;;;;;;;;;;;;;5031957;28;20003;-49
2022/04/03 11:07:47;;;;;;;;;;;;;;;;;;5031834;28;19905;-50
2022/04/03 11:10:13;;;;;;;;;;;;;;;;;;5031886;28;20028;-49
2022/04/03 11:12:38;;;;;;;;;;;;;;;;;;5035080;28;20356;-50
2022/04/03 11:15:04;;;;;;;;;;;;;;;;;;5035532;28;19998;-47
2022/04/03 11:17:30;;;;;;;;;;;;;;;;;;5035555;28;19912;-49
2022/04/03 11:19:56;;;;;;;;;;;;;;;;;;5035317;28;19955;-51
2022/04/03 11:22:22;;;;;;;;;;;;;;;;;;5035372;28;19912;-49
2022/04/03 11:24:48;;;;;;;;;;;;;;;;;;5035330;28;19963;-49
2022/04/03 11:27:14;;;;;;;;;;;;;;;;;;5035291;28;19909;-49
2022/04/03 11:29:40;;;;;;;;;;;;;;;;;;5035472;28;19981;-48
2022/04/03 11:32:06;;;;;;;;;;;;;;;;;;5035411;28;19904;-49
2022/04/03 11:34:32;;;;;;;;;;;;;;;;;;5035197;28;19967;-47
2022/04/03 11:36:58;;;;;;;;;;;;;;;;;;5035448;28;19909;-47
2022/04/03 11:39:24;;;;;;;;;;;;;;;;;;5035237;28;19940;-46
2022/04/03 11:41:50;;;;;;;;;;;;;;;;;;5035436;28;20268;-46
2022/04/03 11:44:16;;;;;;;;;;;;;;;;;;5035143;28;19911;-47
2022/04/03 11:46:41;;;;;;;;;;;;;;;;;;5035217;28;19905;-47
2022/04/03 11:49:07;;;;;;;;;;;;;;;;;;5035018;28;19951;-46
2022/04/03 11:51:33;;;;;;;;;;;;;;;;;;5033726;28;19912;-46
2022/04/03 11:54:02;;;;;;;;;;;;;;;;;;5035027;28;20403;-49
2022/04/03 11:56:31;;;;;;;;;;;;;;;;;;5035019;28;19912;-48
2022/04/03 11:58:57;;;;;;;;;;;;;;;;;;5035138;28;19905;-48
2022/04/03 12:01:23;;;;;;;;;;;;;;;;;;5034836;28;20386;-49
2022/04/03 12:03:51;;;;;;;;;;;;;;;;;;5034687;28;20372;-49
2022/04/03 12:06:17;;;;;;;;;;;;;;;;;;5034808;28;20275;-50
2022/04/03 12:08:42;;;;;;;;;;;;;;;;;;5034627;28;19909;-51
2022/04/03 12:11:08;;;;;;;;;;;;;;;;;;5034696;28;19905;-46
2022/04/03 12:13:34;;;;;;;;;;;;;;;;;;5034525;28;19959;-47
2022/04/03 12:16:00;;;;;;;;;;;;;;;;;;5034588;28;19987;-47
2022/04/03 12:18:26;;;;;;;;;;;;;;;;;;5034502;28;20383;-48
2022/04/03 12:20:52;;;;;;;;;;;;;;;;;;5034523;28;19945;-46
2022/04/03 12:23:17;;;;;;;;;;;;;;;;;;5033404;28;19905;-46
2022/04/03 12:25:43;;;;;;;;;;;;;;;;;;5034419;28;19951;-48
2022/04/03 12:28:10;;;;;;;;;;;;;;;;;;5034325;28;19905;-46
2022/04/03 12:30:35;;;;;;;;;;;;;;;;;;5034329;28;19905;-47
2022/04/03 12:33:01;;;;;;;;;;;;;;;;;;5034191;28;20419;-47
2022/04/03 12:35:29;;;;;;;;;;;;;;;;;;5034104;28;19951;-47
2022/04/03 12:37:55;;;;;;;;;;;;;;;;;;5034264;28;19905;-46
2022/04/03 12:40:22;;;;;;;;;;;;;;;;;;5034330;28;20271;-47
2022/04/03 12:42:48;;;;;;;;;;;;;;;;;;5034128;28;19909;-47
2022/04/03 12:45:15;;;;;;;;;;;;;;;;;;5034178;28;19958;-48
2022/04/03 12:47:41;;;;;;;;;;;;;;;;;;5032548;28;20312;-47
2022/04/03 12:50:07;;;;;;;;;;;;;;;;;;5033970;28;19912;-49
2022/04/03 12:52:33;;;;;;;;;;;;;;;;;;5033828;28;19917;-47
2022/04/03 12:54:58;;;;;;;;;;;;;;;;;;5033919;28;19913;-47
2022/04/03 13:00:09;;;;;;;;;;;;;;;;;;5033850;28;20012;-48
2022/04/03 13:02:35;;;;;;;;;;;;;;;;;;5033652;28;19948;-49
2022/04/03 13:05:01;;;;;;;;;;;;;;;;;;5033505;28;19917;-47
2022/04/03 13:07:27;;;;;;;;;;;;;;;;;;5033680;28;19951;-47
2022/04/03 13:09:53;;;;;;;;;;;;;;;;;;5033630;28;20288;-47
2022/04/03 13:12:19;;;;;;;;;;;;;;;;;;5033454;28;20359;-47
2022/04/03 13:14:45;;;;;;;;;;;;;;;;;;5033598;28;19919;-48
2022/04/03 13:17:13;;;;;;;;;;;;;;;;;;5033294;28;19940;-47
2022/04/03 13:19:38;;;;;;;;;;;;;;;;;;5033294;28;19904;-48
2022/04/03 13:22:05;;;;;;;;;;;;;;;;;;5033050;28;20266;-48
2022/04/03 13:24:31;;;;;;;;;;;;;;;;;;5033556;28;19919;-50
2022/04/03 13:26:56;;;;;;;;;;;;;;;;;;5033425;28;20427;-50
2022/04/03 13:29:22;;;;;;;;;;;;;;;;;;5033232;28;19916;-50
2022/04/03 13:31:48;;;;;;;;;;;;;;;;;;5033436;28;20348;-49
2022/04/03 13:34:14;;;;;;;;;;;;;;;;;;5033218;28;20283;-50
2022/04/03 13:36:40;;;;;;;;;;;;;;;;;;5033055;28;19905;-50
2022/04/03 13:39:06;;;;;;;;;;;;;;;;;;5033047;28;20245;-50
2022/04/03 13:41:32;;;;;;;;;;;;;;;;;;5032995;28;19913;-50
2022/04/03 13:43:58;;;;;;;;;;;;;;;;;;5033079;28;19909;-50
2022/04/03 13:46:25;;;;;;;;;;;;;;;;;;5032953;28;19905;-50
2022/04/03 13:48:51;;;;;;;;;;;;;;;;;;5032892;28;19951;-49
2022/04/03 13:51:17;;;;;;;;;;;;;;;;;;5033065;28;19909;-48
2022/04/03 13:53:43;;;;;;;;;;;;;;;;;;5032751;28;19920;-49
2022/04/03 13:56:09;;;;;;;;;;;;;;;;;;5033037;28;19905;-51
2022/04/03 13:58:35;;;;;;;;;;;;;;;;;;5032685;28;20003;-50
2022/04/03 14:01:01;;;;;;;;;;;;;;;;;;5032866;28;19909;-50
2022/04/03 14:03:27;;;;;;;;;;;;;;;;;;5032430;28;19909;-54
2022/04/03 14:05:52;;;;;;;;;;;;;;;;;;5032692;28;19909;-52
2022/04/03 14:08:18;;;;;;;;;;;;;;;;;;5032722;28;19951;-53
2022/04/03 14:10:45;;;;;;;;;;;;;;;;;;5032640;28;20279;-55
2022/04/03 14:13:10;;;;;;;;;;;;;;;;;;5032669;28;20300;-54
2022/04/03 14:15:38;;;;;;;;;;;;;;;;;;5032777;28;19911;-51
2022/04/03 14:18:03;;;;;;;;;;;;;;;;;;5032934;28;19905;-51
2022/04/03 14:20:29;;;;;;;;;;;;;;;;;;5032571;28;19905;-52
2022/04/03 14:22:55;;;;;;;;;;;;;;;;;;5032536;28;19911;-50
2022/04/03 14:25:21;;;;;;;;;;;;;;;;;;5032535;28;19911;-50
2022/04/03 14:27:47;;;;;;;;;;;;;;;;;;5032328;28;19909;-53
2022/04/03 14:30:13;;;;;;;;;;;;;;;;;;5032145;28;20415;-50
2022/04/03 14:32:45;;;;;;;;;;;;;;;;;;5032082;28;19928;-53
2022/04/03 14:35:11;;;;;;;;;;;;;;;;;;5032716;28;19909;-52
2022/04/03 14:37:37;;;;;;;;;;;;;;;;;;5032053;28;19958;-49
2022/04/03 14:40:04;;;;;;;;;;;;;;;;;;5032299;28;19916;-53
2022/04/03 14:42:30;;;;;;;;;;;;;;;;;;5032179;28;20398;-51
2022/04/03 14:44:56;;;;;;;;;;;;;;;;;;5032227;28;19905;-51
2022/04/03 14:47:22;;;;;;;;;;;;;;;;;;5035361;28;20353;-52
2022/04/03 14:49:48;;;;;;;;;;;;;;;;;;5036275;28;19912;-50
2022/04/03 14:52:13;;;;;;;;;;;;;;;;;;5036088;28;19928;-49
2022/04/03 14:54:39;;;;;;;;;;;;;;;;;;5035908;28;19960;-52
2022/04/03 14:57:07;;;;;;;;;;;;;;;;;;5036125;28;20262;-48
2022/04/03 14:59:33;;;;;;;;;;;;;;;;;;5035829;28;19951;-48
2022/04/03 15:01:59;;;;;;;;;;;;;;;;;;5035668;28;19909;-48
2022/04/03 15:04:25;;;;;;;;;;;;;;;;;;5035490;28;19963;-48
2022/04/03 15:06:51;;;;;;;;;;;;;;;;;;5035607;28;19952;-47
2022/04/03 15:09:31;;;;;;;;;;;;;;;;;;5035512;28;19912;-48
2022/04/03 15:11:57;;;;;;;;;;;;;;;;;;5035993;28;19905;-48
2022/04/03 15:14:23;;;;;;;;;;;;;;;;;;5035674;28;19923;-48
2022/04/03 15:16:49;;;;;;;;;;;;;;;;;;5035673;28;19905;-53
2022/04/03 15:19:16;;;;;;;;;;;;;;;;;;5036026;28;19905;-50
2022/04/03 15:21:42;;;;;;;;;;;;;;;;;;5035885;28;19909;-53
2022/04/03 15:24:08;;;;;;;;;;;;;;;;;;5035540;28;19905;-50
2022/04/03 15:26:34;;;;;;;;;;;;;;;;;;5035531;28;19990;-51
2022/04/03 15:29:00;;;;;;;;;;;;;;;;;;5035386;28;20279;-52
2022/04/03 15:31:26;;;;;;;;;;;;;;;;;;5035495;28;19905;-50
2022/04/03 15:33:52;;;;;;;;;;;;;;;;;;5035178;28;20016;-47
2022/04/03 15:36:18;;;;;;;;;;;;;;;;;;5035284;28;19936;-48
2022/04/03 15:38:44;;;;;;;;;;;;;;;;;;5035177;28;19913;-47
2022/04/03 15:41:12;;;;;;;;;;;;;;;;;;5035320;28;19912;-47
2022/04/03 15:43:39;;;;;;;;;;;;;;;;;;5035476;28;19904;-47
2022/04/03 15:46:05;;;;;;;;;;;;;;;;;;5035064;28;19944;-47
2022/04/03 15:48:31;;;;;;;;;;;;;;;;;;5034908;28;19905;-47
2022/04/03 15:50:57;;;;;;;;;;;;;;;;;;5034884;28;19958;-48
2022/04/03 15:53:23;;;;;;;;;;;;;;;;;;5035028;28;19917;-50
2022/04/03 15:55:49;;;;;;;;;;;;;;;;;;5034899;28;20319;-50
2022/04/03 15:58:15;;;;;;;;;;;;;;;;;;5034812;28;19912;-49
2022/04/03 16:00:41;;;;;;;;;;;;;;;;;;5034905;28;19905;-49
2022/04/03 16:03:08;;;;;;;;;;;;;;;;;;5034525;28;19905;-50
2022/04/03 16:05:35;;;;;;;;;;;;;;;;;;5034850;28;19905;-51
2022/04/03 16:08:00;;;;;;;;;;;;;;;;;;5034629;28;19905;-49
2022/04/03 16:10:26;;;;;;;;;;;;;;;;;;5034566;28;20423;-50
2022/04/03 16:12:52;;;;;;;;;;;;;;;;;;5034432;28;19909;-49
2022/04/03 16:15:18;;;;;;;;;;;;;;;;;;5034789;28;19905;-49
2022/04/03 16:17:46;;;;;;;;;;;;;;;;;;5034872;28;19905;-50
2022/04/03 16:20:11;;;;;;;;;;;;;;;;;;5034552;28;20003;-50
2022/04/03 16:22:37;;;;;;;;;;;;;;;;;;5034316;28;20027;-49
2022/04/03 16:25:03;;;;;;;;;;;;;;;;;;5034217;28;19958;-51
2022/04/03 16:27:29;;;;;;;;;;;;;;;;;;5034529;28;19928;-48
2022/04/03 16:29:55;;;;;;;;;;;;;;;;;;5034307;28;20374;-47
2022/04/03 16:32:21;;;;;;;;;;;;;;;;;;5034236;28;19934;-46
2022/04/03 16:34:47;;;;;;;;;;;;;;;;;;5034166;28;19916;-48
2022/04/03 16:37:13;;;;;;;;;;;;;;;;;;5034138;28;19916;-47
2022/04/03 16:39:39;;;;;;;;;;;;;;;;;;5034368;28;20016;-48